Keenes, IL (62851)

4:48 AM CST on February 09, 2016 (GMT -0600)
Garrison, il | | Change Station
CLOSE
Current Station
Personal Weather Station
Location: Illinois, IL
Elevation: 427 ft
Nearby Weather Stations
Active Advisory: Special Statement

Elev 427 ft 38.25 °N, 88.52 °W | Updated 12 minutes ago

Overcast
Overcast
20.7 °F
Feels Like 9 °F
N
10.4
Wind Variable Wind from WNW

Today
High -- | Low -- °F
--% Chance of Precip.
Yesterday
High -- | Low -- °F
Precip. -- in
Pressure 29.87 in
Visibility 10.0 miles
Clouds Scattered Clouds 3300 ft
Overcast 4100 ft
Windchill 9 °F
Dew Point 15 °F
Humidity 77%
Rainfall 0.00 in
Snow Depth Not available.
6:52 AM 5:25 PM
New Moon, 1% visible
METAR KMVN 091035Z AUTO 30005KT 10SM SCT033 OVC041 M07/M13 A2987 RMK AO1
Pressure 29.87 in
Visibility 10.0 miles
Clouds Scattered Clouds 3300 ft
Overcast 4100 ft
Windchill 9 °F
Dew Point 15 °F
Humidity 77%
Rainfall 0.00 in
Snow Depth Not available.
6:52 AM 5:25 PM
New Moon, 1% visible
METAR KMVN 091035Z AUTO 30005KT 10SM SCT033 OVC041 M07/M13 A2987 RMK AO1

10-Day Weather Forecast

Almanac

Astronomy

Feb. 09, 2016 Rise Set
Actual Time
Civil Twilight
Nautical Twilight
Astronomical Twilight
Moon
Length of Visible Light
Length of Day
Tomorrow will be .
, % of the Moon is Illuminated

Today's Extremes

State Highs State Lows

Community

WunderPhotos

Upload Photos

1,891,565 photos uploaded!

WunderBlog® & News

Nearby

Air Quality

  Air Quality AQ Index Pollutant
Not available.

Snow Depth

Station Depth Elevation

Earthquake Activity

City Distance Mag. Time & Date
Minimum magnitude displayed is 2.5.

Coastal Water Temperatures

Place Temperature

Stations

Nearby Weather Stations

Station Location Temp. Windchill Dew Point Humidity Wind Precip. Elev Updated Type
                   

Watches & Warnings

Special Statement
Issued: 3:44 AM CST Feb. 9, 2016 – National Weather Service

... Slick spots will be possible on some area roadways this
morning...

Areas of light snow and flurries will continue off and on in many
locations this morning. Though little if any overall accumulations
are expected... slick spots may develop in localized areas where
quick bursts of heavier snow manage to develop. Also..be prepared
for the possibility of rapidly changing visibilities.


Meffert


344 am CST Tue Feb 9 2016

... Slick spots will be possible on some area roadways this
morning...

Areas of light snow and flurries will continue off and on in many
locations this morning. Though little if any overall accumulations
are expected... slick spots may develop in localized areas where
quick bursts of heavier snow manage to develop. Also..be prepared
for the possibility of rapidly changing visibilities.


Meffert